Viewbank, Australia

4:55 AM AEDT on March 25, 2017 (GMT +1100)
Gallery Gate Road | | Change Station

Elev 193 ft 37.73 °S, 145.10 °E | Updated 4 minutes ago

Mostly Cloudy
Mostly Cloudy
66.4 °F
Feels Like 66.4 °F
N
0.0
Wind Variable Wind from North
Gusts 0.6 mph

Today
High -- | Low -- °F
--% Chance of Precip.
Yesterday
High -- | Low -- °F
Precip. -- in
Pressure 29.89 in
Visibility -9999.0 miles
Clouds
Dew Point 59 °F
Humidity 77%
Rainfall 0.00 in
Snow Depth Not available.
7:26 AM 7:23 PM
Waning Crescent, 14% visible
METAR YMML 241730Z 33003KT CAVOK 18/15 Q1012 FM1900 36016KT 9999 FEW040 FM1830 MOD TURB BLW 3000FT
Pressure 29.89 in
Visibility -9999.0 miles
Clouds
Dew Point 59 °F
Humidity 77%
Rainfall 0.00 in
Snow Depth Not available.
7:26 AM 7:23 PM
Waning Crescent, 14% visible
METAR YMML 241730Z 33003KT CAVOK 18/15 Q1012 FM1900 36016KT 9999 FEW040 FM1830 MOD TURB BLW 3000FT

Get Severe Weather Alerts

Thanks for signing up!

Be on the lookout for a verification email in your inbox.

You'll start receiving the daily forecast at 8 AM.

×

10-Day Weather Forecast

×

Almanac

Astronomy

Mar. 25, 2017 Rise Set
Actual Time
Civil Twilight
Nautical Twilight
Astronomical Twilight
Moon
Length of Visible Light
Length of Day
Tomorrow will be .
, % of the Moon is Illuminated

Today's Extremes

Country Highs Country Lows

Community

WunderPhotos

Upload Photos

1,962,540 photos uploaded!

WunderBlog® & News

Nearby

Air Quality

  Air Quality AQ Index Pollutant
Not available.

Snow Depth

Station Depth Elevation

Earthquake Activity

City Distance Mag. Time & Date
Minimum magnitude displayed is 2.5.

Earthquake Activity

City Distance Mag. Time & Date
Minimum magnitude displayed is 2.5.

Coastal Water Temperatures

Place Temperature

Stations

Nearby Weather Stations

Station Location Temp. Windchill Dew Point Humidity Wind Precip. Elev Updated Type